Time;durP1;ratioP1;P1;durP2;ratioP2;P2;SDS_P1;SDS_P2;PMS_P1;PMS_P2;Temp;Humidity;BMP_temperature;BMP_pressure;BME280_temperature;BME280_humidity;BME280_pressure;Samples;Min_cycle;Max_cycle;Signal;HPM_P1;HPM_P2
2022/07/11 00:02:21;;;;;;;2.20;2.00;;;;;;;;;;5014016;28;20440;-67
2022/07/11 00:04:47;;;;;;;2.27;2.17;;;;;;;;;;5014361;28;20546;-67
2022/07/11 00:07:13;;;;;;;2.60;2.40;;;;;;;;;;4996866;28;20423;-67
2022/07/11 00:09:40;;;;;;;3.43;2.23;;;;;;;;;;5014299;28;20878;-67
2022/07/11 00:12:06;;;;;;;2.37;2.23;;;;;;;;;;5014318;28;20445;-67
2022/07/11 00:14:32;;;;;;;2.30;2.17;;;;;;;;;;5014126;28;20424;-67
2022/07/11 00:16:58;;;;;;;3.33;1.97;;;;;;;;;;5012987;28;20421;-67
2022/07/11 00:19:24;;;;;;;2.30;2.13;;;;;;;;;;5014218;28;20413;-68
2022/07/11 00:21:51;;;;;;;2.40;2.23;;;;;;;;;;5013731;28;20432;-69
2022/07/11 00:24:19;;;;;;;2.60;2.40;;;;;;;;;;5014489;28;20415;-68
2022/07/11 00:26:46;;;;;;;2.60;2.40;;;;;;;;;;5014095;28;20408;-68
2022/07/11 00:29:12;;;;;;;2.37;2.27;;;;;;;;;;5013988;28;20471;-68
2022/07/11 00:31:38;;;;;;;2.63;2.43;;;;;;;;;;5014043;28;20463;-68
2022/07/11 00:34:04;;;;;;;2.20;2.10;;;;;;;;;;5014076;28;20831;-68
2022/07/11 00:36:31;;;;;;;2.00;1.90;;;;;;;;;;5014042;28;20400;-68
2022/07/11 00:38:57;;;;;;;2.63;2.50;;;;;;;;;;4996246;28;20423;-68
2022/07/11 00:41:23;;;;;;;2.70;2.33;;;;;;;;;;5013778;28;20415;-68
2022/07/11 00:43:56;;;;;;;2.77;2.57;;;;;;;;;;5013863;28;20755;-68
2022/07/11 00:46:23;;;;;;;2.60;2.40;;;;;;;;;;4996161;28;20428;-68
2022/07/11 00:48:49;;;;;;;2.40;2.30;;;;;;;;;;5013716;28;20941;-68
2022/07/11 00:51:16;;;;;;;2.73;2.60;;;;;;;;;;5013802;28;20412;-68
2022/07/11 00:53:42;;;;;;;3.20;2.93;;;;;;;;;;5013729;28;20407;-68
2022/07/11 00:56:08;;;;;;;2.97;2.87;;;;;;;;;;5013884;28;20404;-68
2022/07/11 00:58:35;;;;;;;4.23;3.30;;;;;;;;;;5013642;28;20497;-68
2022/07/11 01:01:02;;;;;;;2.83;2.73;;;;;;;;;;5013925;28;20772;-68
2022/07/11 01:03:28;;;;;;;3.50;3.30;;;;;;;;;;5013532;28;20493;-68
2022/07/11 01:05:54;;;;;;;3.80;3.50;;;;;;;;;;5013442;28;20891;-68
2022/07/11 01:08:20;;;;;;;3.40;3.20;;;;;;;;;;5013594;28;20442;-68
2022/07/11 01:10:46;;;;;;;3.50;3.17;;;;;;;;;;5013500;28;20559;-68
2022/07/11 01:13:12;;;;;;;2.87;2.70;;;;;;;;;;5013468;28;20418;-68
2022/07/11 01:15:38;;;;;;;4.60;2.80;;;;;;;;;;5013467;28;20499;-68
2022/07/11 01:18:04;;;;;;;2.07;2.07;;;;;;;;;;5013433;28;20402;-68
2022/07/11 01:20:30;;;;;;;3.27;2.73;;;;;;;;;;5013559;28;20406;-67
2022/07/11 01:23:08;;;;;;;3.03;2.60;;;;;;;;;;5013402;28;20409;-68
2022/07/11 01:25:34;;;;;;;3.30;3.10;;;;;;;;;;5013413;28;20429;-68
2022/07/11 01:28:06;;;;;;;3.03;2.93;;;;;;;;;;5013319;28;20508;-68
2022/07/11 01:30:32;;;;;;;2.70;2.63;;;;;;;;;;5013368;28;20836;-68
2022/07/11 01:32:59;;;;;;;2.90;2.80;;;;;;;;;;4995725;28;20854;-68
2022/07/11 01:35:25;;;;;;;2.80;2.60;;;;;;;;;;5016771;28;20865;-68
2022/07/11 01:37:51;;;;;;;2.87;2.67;;;;;;;;;;4999562;28;20936;-68
2022/07/11 01:40:17;;;;;;;3.10;3.00;;;;;;;;;;5017155;28;20422;-68
2022/07/11 01:42:43;;;;;;;5.07;3.20;;;;;;;;;;5017027;28;20894;-68
2022/07/11 01:45:10;;;;;;;2.47;2.47;;;;;;;;;;5017287;28;20795;-68
2022/07/11 01:47:36;;;;;;;3.00;2.90;;;;;;;;;;5017066;28;20413;-68
2022/07/11 01:50:02;;;;;;;2.57;2.47;;;;;;;;;;4999277;28;20481;-68
2022/07/11 01:52:28;;;;;;;2.77;2.67;;;;;;;;;;5016910;28;20436;-68
2022/07/11 01:54:54;;;;;;;3.00;2.80;;;;;;;;;;5016943;28;20406;-68
2022/07/11 01:57:20;;;;;;;3.17;2.83;;;;;;;;;;5016774;28;20890;-68
2022/07/11 01:59:47;;;;;;;2.20;2.20;;;;;;;;;;5016837;28;20401;-68
2022/07/11 02:02:13;;;;;;;2.40;2.30;;;;;;;;;;5016787;28;20438;-68
2022/07/11 02:04:40;;;;;;;2.80;2.70;;;;;;;;;;5016593;28;20995;-68
2022/07/11 02:07:06;;;;;;;3.30;3.10;;;;;;;;;;5016720;28;20823;-68
2022/07/11 02:09:32;;;;;;;2.77;2.67;;;;;;;;;;5016597;28;20477;-68
2022/07/11 02:11:58;;;;;;;2.93;2.77;;;;;;;;;;5016601;28;20423;-68
2022/07/11 02:14:24;;;;;;;2.90;2.80;;;;;;;;;;5016579;28;20415;-68
2022/07/11 02:16:50;;;;;;;5.63;2.43;;;;;;;;;;5016606;28;20423;-68
2022/07/11 02:19:16;;;;;;;2.43;2.43;;;;;;;;;;5016480;28;20821;-68
2022/07/11 02:21:42;;;;;;;2.57;2.40;;;;;;;;;;5016420;28;20412;-68
2022/07/11 02:24:08;;;;;;;3.53;2.63;;;;;;;;;;5016310;28;20903;-68
2022/07/11 02:26:34;;;;;;;2.50;2.33;;;;;;;;;;5016327;28;20787;-68
2022/07/11 02:29:00;;;;;;;2.87;2.77;;;;;;;;;;5016228;28;20457;-68
2022/07/11 02:31:26;;;;;;;2.40;2.30;;;;;;;;;;5016233;28;20490;-68
2022/07/11 02:33:52;;;;;;;3.17;2.90;;;;;;;;;;5016212;28;20401;-68
2022/07/11 02:36:18;;;;;;;2.77;2.67;;;;;;;;;;5016116;28;20424;-68
2022/07/11 02:38:44;;;;;;;2.93;2.67;;;;;;;;;;5016110;28;20900;-68
2022/07/11 02:41:10;;;;;;;2.90;2.80;;;;;;;;;;5016038;28;20904;-68
2022/07/11 02:43:36;;;;;;;5.10;3.73;;;;;;;;;;5016088;28;20515;-67
2022/07/11 02:46:02;;;;;;;4.47;4.17;;;;;;;;;;5015553;28;20961;-68
2022/07/11 02:48:28;;;;;;;5.10;4.13;;;;;;;;;;5016208;28;20418;-68
2022/07/11 02:50:54;;;;;;;3.23;2.97;;;;;;;;;;5015805;28;20476;-68
2022/07/11 02:53:20;;;;;;;4.57;3.80;;;;;;;;;;5015876;28;20437;-68
2022/07/11 02:55:48;;;;;;;3.50;3.23;;;;;;;;;;5015805;28;20560;-68
2022/07/11 02:58:14;;;;;;;4.50;4.10;;;;;;;;;;5015770;28;20830;-68
2022/07/11 03:00:40;;;;;;;5.60;4.47;;;;;;;;;;5015681;28;20410;-68
2022/07/11 03:03:06;;;;;;;3.83;3.50;;;;;;;;;;5015476;28;20863;-67
2022/07/11 03:05:32;;;;;;;4.50;3.40;;;;;;;;;;5015642;28;20420;-68
2022/07/11 03:07:58;;;;;;;3.40;3.20;;;;;;;;;;5015493;28;20411;-68
2022/07/11 03:10:24;;;;;;;4.53;2.93;;;;;;;;;;5015474;28;20504;-68
2022/07/11 03:12:51;;;;;;;3.23;2.90;;;;;;;;;;5015487;28;20446;-68
2022/07/11 03:15:17;;;;;;;2.87;2.73;;;;;;;;;;5015678;28;20894;-68
2022/07/11 03:17:43;;;;;;;3.13;2.83;;;;;;;;;;5015384;28;20409;-68
2022/07/11 03:20:10;;;;;;;3.30;3.17;;;;;;;;;;5015407;28;20417;-68
2022/07/11 03:22:36;;;;;;;2.93;2.73;;;;;;;;;;5015209;28;20397;-68
2022/07/11 03:25:05;;;;;;;3.73;2.60;;;;;;;;;;5015248;28;20423;-68
2022/07/11 03:27:31;;;;;;;2.40;2.30;;;;;;;;;;5015118;28;21022;-68
2022/07/11 03:29:57;;;;;;;2.80;2.67;;;;;;;;;;5015117;28;20478;-68
2022/07/11 03:32:23;;;;;;;3.17;2.73;;;;;;;;;;5015103;28;20397;-68
2022/07/11 03:37:33;;;;;;;4.07;3.57;;;;;;;;;;5015051;28;20408;-68
2022/07/11 03:39:59;;;;;;;3.67;2.60;;;;;;;;;;5015150;28;20423;-68
2022/07/11 03:42:26;;;;;;;3.07;2.87;;;;;;;;;;5014853;28;20860;-69
2022/07/11 03:44:52;;;;;;;3.20;2.97;;;;;;;;;;5014915;28;20915;-69
2022/07/11 03:47:19;;;;;;;2.67;2.47;;;;;;;;;;5014804;28;20794;-69
2022/07/11 03:49:45;;;;;;;2.50;2.40;;;;;;;;;;5014789;28;21092;-68
2022/07/11 03:52:12;;;;;;;2.60;2.50;;;;;;;;;;5014737;28;20405;-69
2022/07/11 03:54:38;;;;;;;14.40;6.53;;;;;;;;;;4997413;28;20456;-69
2022/07/11 03:57:04;;;;;;;3.00;2.80;;;;;;;;;;5013906;28;20490;-69
2022/07/11 03:59:30;;;;;;;2.80;2.53;;;;;;;;;;5014847;28;20769;-69
2022/07/11 04:01:56;;;;;;;2.23;2.13;;;;;;;;;;5014622;28;20413;-68
2022/07/11 04:04:22;;;;;;;2.47;2.47;;;;;;;;;;5014368;28;21009;-68
2022/07/11 04:06:48;;;;;;;52.80;40.20;;;;;;;;;;5014506;28;20439;-69
2022/07/11 04:09:14;;;;;;;10.93;9.87;;;;;;;;;;5014380;28;20464;-68
2022/07/11 04:11:40;;;;;;;2.43;2.30;;;;;;;;;;5014320;28;20423;-68
2022/07/11 04:14:06;;;;;;;2.60;2.40;;;;;;;;;;5014389;28;20409;-68
2022/07/11 04:16:32;;;;;;;5.50;2.00;;;;;;;;;;5014297;28;20767;-68
2022/07/11 04:18:58;;;;;;;2.33;2.33;;;;;;;;;;4996656;28;20425;-68
2022/07/11 04:21:24;;;;;;;3.70;2.30;;;;;;;;;;5014295;28;20413;-68
2022/07/11 04:23:50;;;;;;;2.13;2.03;;;;;;;;;;5014249;28;20906;-68
2022/07/11 04:26:16;;;;;;;2.00;2.00;;;;;;;;;;4996459;28;20483;-68
2022/07/11 04:28:42;;;;;;;2.50;2.37;;;;;;;;;;5014137;28;20414;-68
2022/07/11 04:31:08;;;;;;;2.80;2.33;;;;;;;;;;5014108;28;20498;-68
2022/07/11 04:33:34;;;;;;;3.17;2.13;;;;;;;;;;5014110;28;20409;-68
2022/07/11 04:36:00;;;;;;;3.17;2.40;;;;;;;;;;5014012;28;20416;-68
2022/07/11 04:38:26;;;;;;;2.50;2.30;;;;;;;;;;5013987;28;20441;-68
2022/07/11 04:40:52;;;;;;;2.57;2.20;;;;;;;;;;5013951;28;20436;-68
2022/07/11 04:43:18;;;;;;;2.83;2.67;;;;;;;;;;5013848;28;20402;-68
2022/07/11 04:45:44;;;;;;;2.93;2.03;;;;;;;;;;5014026;28;20414;-68
2022/07/11 04:48:10;;;;;;;2.67;2.43;;;;;;;;;;4996223;28;20421;-68
2022/07/11 04:50:36;;;;;;;3.10;2.80;;;;;;;;;;5013800;28;20997;-69
2022/07/11 04:53:02;;;;;;;4.47;3.10;;;;;;;;;;5013962;28;20865;-68
2022/07/11 04:55:29;;;;;;;2.40;2.30;;;;;;;;;;5013604;28;20437;-68
2022/07/11 04:57:55;;;;;;;2.87;2.77;;;;;;;;;;5013589;28;20892;-68
2022/07/11 05:00:21;;;;;;;2.63;2.33;;;;;;;;;;5013667;28;20501;-69
2022/07/11 05:02:47;;;;;;;3.37;2.60;;;;;;;;;;5013596;28;20924;-68
2022/07/11 05:05:13;;;;;;;4.10;2.03;;;;;;;;;;5013535;28;20971;-68
2022/07/11 05:07:39;;;;;;;6.23;2.17;;;;;;;;;;5013435;28;20839;-68
2022/07/11 05:10:05;;;;;;;2.57;2.47;;;;;;;;;;5013480;28;20546;-68
2022/07/11 05:12:31;;;;;;;2.30;2.20;;;;;;;;;;5013378;28;20432;-68
2022/07/11 05:14:58;;;;;;;2.60;2.50;;;;;;;;;;4995772;28;20432;-68
2022/07/11 05:17:25;;;;;;;2.50;2.20;;;;;;;;;;4995825;28;20431;-68
2022/07/11 05:19:50;;;;;;;2.70;2.60;;;;;;;;;;5013506;28;20417;-68
2022/07/11 05:22:16;;;;;;;2.27;2.17;;;;;;;;;;5013419;28;20429;-68
2022/07/11 05:24:42;;;;;;;2.43;2.23;;;;;;;;;;5013430;28;20415;-68
2022/07/11 05:27:08;;;;;;;9.40;2.40;;;;;;;;;;5013245;28;20465;-68
2022/07/11 05:29:34;;;;;;;3.33;2.23;;;;;;;;;;4995662;28;20484;-68
2022/07/11 05:32:00;;;;;;;3.60;2.17;;;;;;;;;;5013502;28;20419;-67
2022/07/11 05:34:26;;;;;;;3.13;2.50;;;;;;;;;;5013342;28;20766;-68
2022/07/11 05:36:53;;;;;;;2.20;2.10;;;;;;;;;;4995678;28;20419;-68
2022/07/11 05:39:19;;;;;;;7.53;2.00;;;;;;;;;;5013407;28;20407;-68
2022/07/11 05:41:45;;;;;;;3.90;2.20;;;;;;;;;;4995828;28;20497;-68
2022/07/11 05:44:11;;;;;;;7.17;2.07;;;;;;;;;;5013385;28;20507;-68
2022/07/11 05:46:40;;;;;;;2.67;2.47;;;;;;;;;;5013345;28;20417;-68
2022/07/11 05:49:10;;;;;;;2.67;2.33;;;;;;;;;;5013364;28;20461;-68
2022/07/11 05:51:39;;;;;;;4.40;2.17;;;;;;;;;;5013254;28;20399;-68
2022/07/11 05:54:05;;;;;;;2.37;2.23;;;;;;;;;;5013236;28;20392;-69
2022/07/11 05:56:31;;;;;;;6.23;2.57;;;;;;;;;;4995592;28;20962;-68
2022/07/11 05:58:57;;;;;;;5.60;2.87;;;;;;;;;;5013256;28;20767;-68
2022/07/11 06:01:23;;;;;;;2.00;1.93;;;;;;;;;;4995619;28;20428;-68
2022/07/11 06:03:49;;;;;;;2.53;2.33;;;;;;;;;;5013077;28;20461;-68
2022/07/11 06:06:16;;;;;;;3.33;2.00;;;;;;;;;;5013187;28;20427;-69
2022/07/11 06:08:43;;;;;;;2.30;1.80;;;;;;;;;;5013134;28;20403;-69
2022/07/11 06:11:11;;;;;;;2.23;2.00;;;;;;;;;;5012965;28;20483;-70
2022/07/11 06:13:37;;;;;;;2.23;2.10;;;;;;;;;;5013091;28;20775;-68
2022/07/11 06:16:04;;;;;;;2.20;2.10;;;;;;;;;;5013013;28;20416;-70
2022/07/11 06:18:30;;;;;;;16.33;2.37;;;;;;;;;;5013150;28;20491;-70
2022/07/11 06:20:56;;;;;;;1.90;1.90;;;;;;;;;;5015303;28;20451;-68
2022/07/11 06:23:22;;;;;;;3.60;2.33;;;;;;;;;;5016520;28;20885;-67
2022/07/11 06:25:48;;;;;;;4.00;2.07;;;;;;;;;;5016433;28;20448;-67
2022/07/11 06:28:14;;;;;;;2.70;1.73;;;;;;;;;;5016298;28;20470;-67
2022/07/11 06:30:40;;;;;;;2.57;2.03;;;;;;;;;;5016299;28;20554;-67
2022/07/11 06:33:06;;;;;;;1.93;1.93;;;;;;;;;;5016316;28;20910;-67
2022/07/11 06:35:34;;;;;;;3.70;1.90;;;;;;;;;;5016251;28;20412;-68
2022/07/11 06:38:00;;;;;;;3.17;1.90;;;;;;;;;;4998888;28;20783;-69
2022/07/11 06:40:26;;;;;;;2.40;1.87;;;;;;;;;;5016263;28;20421;-69
2022/07/11 06:42:52;;;;;;;2.20;2.10;;;;;;;;;;5016145;28;20509;-68
2022/07/11 06:45:18;;;;;;;1.77;1.60;;;;;;;;;;5016304;28;20516;-69
2022/07/11 06:47:44;;;;;;;1.70;1.70;;;;;;;;;;5015986;28;20911;-69
2022/07/11 06:50:11;;;;;;;2.00;1.90;;;;;;;;;;5015981;28;20480;-69
2022/07/11 06:52:37;;;;;;;1.90;1.90;;;;;;;;;;5016018;28;20399;-68
2022/07/11 06:55:03;;;;;;;3.93;2.20;;;;;;;;;;5016199;28;20415;-70
2022/07/11 06:57:29;;;;;;;2.63;2.10;;;;;;;;;;5015901;28;20492;-69
2022/07/11 06:59:55;;;;;;;3.80;1.90;;;;;;;;;;5015800;28;20889;-69
2022/07/11 07:02:26;;;;;;;3.50;2.20;;;;;;;;;;5015797;28;20779;-69
2022/07/11 07:04:52;;;;;;;4.03;2.00;;;;;;;;;;5015658;28;20488;-69
2022/07/11 07:07:18;;;;;;;1.90;1.80;;;;;;;;;;5015765;28;20792;-68
2022/07/11 07:09:44;;;;;;;2.50;2.30;;;;;;;;;;5015508;28;20469;-68
2022/07/11 07:12:10;;;;;;;2.47;2.33;;;;;;;;;;5015510;28;20424;-68
2022/07/11 07:14:36;;;;;;;1.60;1.50;;;;;;;;;;5015547;28;20391;-68
2022/07/11 07:17:03;;;;;;;1.83;1.83;;;;;;;;;;5015540;28;20423;-70
2022/07/11 07:19:28;;;;;;;2.63;1.87;;;;;;;;;;5015772;28;20411;-68
2022/07/11 07:21:54;;;;;;;3.27;1.97;;;;;;;;;;5015421;28;20411;-69
2022/07/11 07:24:21;;;;;;;1.83;1.83;;;;;;;;;;5015488;28;20510;-69
2022/07/11 07:26:47;;;;;;;2.03;1.93;;;;;;;;;;5015509;28;20418;-69
2022/07/11 07:29:13;;;;;;;2.27;2.17;;;;;;;;;;5015302;28;20491;-69
2022/07/11 07:31:39;;;;;;;1.97;1.80;;;;;;;;;;5014086;28;20401;-68
2022/07/11 07:34:05;;;;;;;5.13;2.30;;;;;;;;;;5015235;28;20457;-69
2022/07/11 07:36:31;;;;;;;2.33;2.20;;;;;;;;;;5015367;28;20401;-68
2022/07/11 07:38:57;;;;;;;1.97;1.97;;;;;;;;;;5015201;28;20402;-68
2022/07/11 07:41:23;;;;;;;1.90;1.80;;;;;;;;;;5015053;28;20513;-67
2022/07/11 07:43:51;;;;;;;1.80;1.70;;;;;;;;;;5015020;28;20917;-69
2022/07/11 07:46:17;;;;;;;2.43;1.80;;;;;;;;;;5015008;28;20418;-67
2022/07/11 07:48:43;;;;;;;1.87;1.77;;;;;;;;;;5014980;28;20508;-69
2022/07/11 07:51:09;;;;;;;2.10;1.90;;;;;;;;;;5014893;28;20576;-69
2022/07/11 07:53:35;;;;;;;1.40;1.40;;;;;;;;;;5014876;28;20401;-67
2022/07/11 07:56:01;;;;;;;2.30;2.10;;;;;;;;;;5014814;28;20398;-64
2022/07/11 07:58:27;;;;;;;1.57;1.47;;;;;;;;;;5014805;28;20850;-65
2022/07/11 08:03:37;;;;;;;1.90;1.80;;;;;;;;;;5014361;28;20552;-64
2022/07/11 08:06:03;;;;;;;1.47;1.47;;;;;;;;;;5014688;28;20410;-65
2022/07/11 08:08:29;;;;;;;1.30;1.30;;;;;;;;;;5014705;28;20466;-65
2022/07/11 08:11:00;;;;;;;1.47;1.20;;;;;;;;;;5014745;28;20563;-65
2022/07/11 08:13:27;;;;;;;2.30;1.43;;;;;;;;;;4996927;28;20451;-66
2022/07/11 08:15:53;;;;;;;1.80;1.50;;;;;;;;;;5014422;28;20413;-64
2022/07/11 08:18:19;;;;;;;1.23;1.10;;;;;;;;;;5014523;28;20812;-65
2022/07/11 08:20:45;;;;;;;1.33;1.33;;;;;;;;;;5014447;28;20504;-66
2022/07/11 08:23:12;;;;;;;1.47;1.47;;;;;;;;;;5014362;28;20899;-65
2022/07/11 08:25:38;;;;;;;5.77;1.20;;;;;;;;;;5014310;28;20450;-66
2022/07/11 08:28:04;;;;;;;2.30;1.53;;;;;;;;;;5014204;28;20427;-64
2022/07/11 08:30:30;;;;;;;1.30;1.30;;;;;;;;;;5014180;28;20516;-67
2022/07/11 08:32:56;;;;;;;2.23;1.40;;;;;;;;;;5014180;28;20416;-68
2022/07/11 08:35:22;;;;;;;1.60;1.50;;;;;;;;;;5014181;28;20412;-69
2022/07/11 08:37:48;;;;;;;1.80;1.70;;;;;;;;;;4996596;28;20417;-66
2022/07/11 08:40:14;;;;;;;1.53;1.40;;;;;;;;;;5013986;28;20810;-69
2022/07/11 08:42:41;;;;;;;2.20;1.40;;;;;;;;;;5013658;28;20427;-68
2022/07/11 08:45:08;;;;;;;1.30;1.27;;;;;;;;;;5013970;28;20411;-69
2022/07/11 08:47:36;;;;;;;1.83;1.40;;;;;;;;;;5013933;28;20401;-68
2022/07/11 08:50:03;;;;;;;1.43;1.43;;;;;;;;;;4996225;28;20474;-69
2022/07/11 08:52:29;;;;;;;2.00;1.07;;;;;;;;;;5013785;28;20875;-69
2022/07/11 08:54:55;;;;;;;1.43;1.40;;;;;;;;;;5013920;28;20503;-72
2022/07/11 08:57:21;;;;;;;1.70;1.60;;;;;;;;;;5013776;28;20499;-71
2022/07/11 08:59:48;;;;;;;1.73;1.27;;;;;;;;;;5013789;28;20466;-70
2022/07/11 09:02:14;;;;;;;1.20;1.20;;;;;;;;;;5013765;28;20475;-69
2022/07/11 09:04:40;;;;;;;1.80;1.10;;;;;;;;;;5013655;28;20977;-67
2022/07/11 09:07:06;;;;;;;1.33;1.33;;;;;;;;;;5013687;28;20803;-67
2022/07/11 09:09:32;;;;;;;1.00;1.00;;;;;;;;;;5013581;28;20463;-66
2022/07/11 09:11:59;;;;;;;0.90;0.90;;;;;;;;;;4995961;28;20420;-67
2022/07/11 09:14:28;;;;;;;1.27;1.27;;;;;;;;;;5013598;28;20416;-68
2022/07/11 09:17:00;;;;;;;1.10;1.10;;;;;;;;;;5013616;28;20894;-67
2022/07/11 09:19:30;;;;;;;0.90;0.90;;;;;;;;;;5013616;28;20424;-70
2022/07/11 09:27:42;;;;;;;1.70;1.60;;;;;;;;;;5013822;28;20836;-69
2022/07/11 09:30:27;;;;;;;1.30;1.30;;;;;;;;;;5013510;28;20458;-70
2022/07/11 09:32:57;;;;;;;2.40;1.30;;;;;;;;;;4995712;28;20556;-67
2022/07/11 09:35:23;;;;;;;2.63;1.40;;;;;;;;;;5013388;28;20418;-68
2022/07/11 09:37:49;;;;;;;2.20;1.00;;;;;;;;;;5012549;28;20429;-70
2022/07/11 09:40:17;;;;;;;4.83;1.03;;;;;;;;;;5013387;28;20802;-71
2022/07/11 09:42:47;;;;;;;1.20;1.20;;;;;;;;;;5013327;28;20418;-71
2022/07/11 09:45:14;;;;;;;2.60;1.10;;;;;;;;;;5013646;28;20449;-71
2022/07/11 09:47:49;;;;;;;1.50;1.40;;;;;;;;;;5013392;28;20474;-72
2022/07/11 09:50:19;;;;;;;2.20;1.33;;;;;;;;;;5013126;28;20462;-72
2022/07/11 09:53:05;;;;;;;1.60;1.50;;;;;;;;;;5012929;28;20883;-70
2022/07/11 09:55:32;;;;;;;1.23;1.23;;;;;;;;;;5015253;28;20960;-72
2022/07/11 09:57:57;;;;;;;5.07;1.60;;;;;;;;;;5016910;28;20453;-69
2022/07/11 10:00:24;;;;;;;2.20;1.20;;;;;;;;;;4999215;28;20819;-71
2022/07/11 10:02:51;;;;;;;3.43;1.40;;;;;;;;;;5016723;28;20453;-70
2022/07/11 10:05:17;;;;;;;1.20;1.20;;;;;;;;;;5016743;28;20909;-70
2022/07/11 10:07:43;;;;;;;1.20;1.20;;;;;;;;;;5016753;28;20439;-69
2022/07/11 10:10:12;;;;;;;2.03;1.23;;;;;;;;;;5016751;28;20528;-68
2022/07/11 10:12:39;;;;;;;1.70;1.60;;;;;;;;;;5016618;28;20419;-69
2022/07/11 10:15:08;;;;;;;1.30;1.30;;;;;;;;;;5017009;28;20490;-68
2022/07/11 10:17:34;;;;;;;1.03;1.03;;;;;;;;;;5016935;28;20399;-68
2022/07/11 10:20:00;;;;;;;1.27;1.27;;;;;;;;;;5016540;28;20399;-68
2022/07/11 10:22:26;;;;;;;1.10;1.10;;;;;;;;;;5016562;28;20541;-70
2022/07/11 10:24:56;;;;;;;1.53;1.43;;;;;;;;;;5016735;28;20495;-70
2022/07/11 10:27:22;;;;;;;1.20;1.20;;;;;;;;;;5016494;28;20927;-70
2022/07/11 10:29:53;;;;;;;1.30;1.27;;;;;;;;;;5016370;28;20463;-73
2022/07/11 10:32:19;;;;;;;1.20;1.20;;;;;;;;;;5016153;28;20772;-71
2022/07/11 10:34:47;;;;;;;1.43;1.20;;;;;;;;;;5016223;28;20412;-71
2022/07/11 10:37:13;;;;;;;1.30;1.20;;;;;;;;;;5016042;28;20393;-71
2022/07/11 10:39:46;;;;;;;4.83;1.63;;;;;;;;;;5016119;28;20458;-71
2022/07/11 10:42:19;;;;;;;1.40;1.40;;;;;;;;;;5016002;28;20914;-72
2022/07/11 10:44:50;;;;;;;1.57;1.47;;;;;;;;;;5016052;28;20448;-71
2022/07/11 10:47:37;;;;;;;1.17;1.17;;;;;;;;;;5015941;28;20819;-72
2022/07/11 10:50:08;;;;;;;1.20;1.20;;;;;;;;;;5015832;28;20506;-72
2022/07/11 10:52:36;;;;;;;3.00;1.13;;;;;;;;;;5015840;28;20401;-71
2022/07/11 10:55:15;;;;;;;1.10;1.10;;;;;;;;;;5015798;28;20413;-72
2022/07/11 10:57:49;;;;;;;1.30;1.30;;;;;;;;;;5015673;28;20441;-70
2022/07/11 11:00:20;;;;;;;1.40;1.30;;;;;;;;;;5015710;28;20439;-72
2022/07/11 11:03:05;;;;;;;1.40;1.40;;;;;;;;;;5015663;28;20416;-73
2022/07/11 11:05:52;;;;;;;1.30;1.30;;;;;;;;;;5015228;28;20984;-76
2022/07/11 11:08:34;;;;;;;1.30;1.20;;;;;;;;;;5015557;28;20501;-75
2022/07/11 11:11:00;;;;;;;1.40;1.40;;;;;;;;;;5015431;28;20514;-74
2022/07/11 11:13:27;;;;;;;1.43;1.43;;;;;;;;;;5015456;28;20554;-75
2022/07/11 11:15:56;;;;;;;1.40;1.30;;;;;;;;;;5015449;28;20402;-73
2022/07/11 11:18:25;;;;;;;1.40;1.40;;;;;;;;;;5015194;28;20399;-73
2022/07/11 11:21:00;;;;;;;2.13;1.57;;;;;;;;;;5015332;28;20580;-71
2022/07/11 11:23:28;;;;;;;1.50;1.40;;;;;;;;;;5015266;28;20410;-71
2022/07/11 11:25:54;;;;;;;1.50;1.50;;;;;;;;;;5015232;28;20407;-71
2022/07/11 11:28:23;;;;;;;2.10;1.47;;;;;;;;;;4997519;28;20449;-71
2022/07/11 11:30:57;;;;;;;1.50;1.40;;;;;;;;;;4997505;28;20479;-71
2022/07/11 11:33:25;;;;;;;1.60;1.50;;;;;;;;;;4997633;28;20558;-72
2022/07/11 11:36:01;;;;;;;3.60;1.60;;;;;;;;;;5015011;28;20401;-71
2022/07/11 11:38:27;;;;;;;1.23;1.23;;;;;;;;;;5014925;28;20427;-72
2022/07/11 11:40:53;;;;;;;1.70;1.60;;;;;;;;;;5014959;28;20472;-72
2022/07/11 11:43:23;;;;;;;2.10;1.30;;;;;;;;;;4997213;28;20425;-71
2022/07/11 11:45:52;;;;;;;1.33;1.33;;;;;;;;;;5014886;28;20417;-70
2022/07/11 11:48:35;;;;;;;1.27;1.27;;;;;;;;;;5014872;28;20408;-70
2022/07/11 11:51:05;;;;;;;2.30;1.40;;;;;;;;;;5013637;28;20474;-69
2022/07/11 11:53:39;;;;;;;1.27;1.27;;;;;;;;;;5014750;28;20401;-69
2022/07/11 11:56:39;;;;;;;2.20;1.23;;;;;;;;;;5015000;28;20492;-69
2022/07/11 11:59:10;;;;;;;1.40;1.40;;;;;;;;;;4982697;28;20435;-69
2022/07/11 12:01:37;;;;;;;1.40;1.40;;;;;;;;;;5014519;28;20801;-69
2022/07/11 12:04:11;;;;;;;1.53;1.43;;;;;;;;;;5014443;28;20517;-69
2022/07/11 12:06:38;;;;;;;1.90;1.50;;;;;;;;;;5014408;28;20466;-69
2022/07/11 12:09:05;;;;;;;11.17;2.00;;;;;;;;;;5014358;28;20402;-71
2022/07/11 12:11:32;;;;;;;2.63;2.00;;;;;;;;;;5014393;28;20993;-70
2022/07/11 12:13:58;;;;;;;1.57;1.50;;;;;;;;;;5014365;28;20407;-70
2022/07/11 12:16:43;;;;;;;1.20;1.10;;;;;;;;;;5014253;28;20424;-70
2022/07/11 12:19:16;;;;;;;2.87;1.70;;;;;;;;;;5013829;28;20457;-69
2022/07/11 12:21:44;;;;;;;4.10;1.47;;;;;;;;;;5014281;28;20426;-69
2022/07/11 12:24:12;;;;;;;1.70;1.60;;;;;;;;;;5014250;28;20402;-69
2022/07/11 12:26:40;;;;;;;1.60;1.60;;;;;;;;;;5014269;28;20901;-70
2022/07/11 12:29:10;;;;;;;1.40;1.40;;;;;;;;;;5014076;28;20436;-70
2022/07/11 12:31:43;;;;;;;1.73;1.50;;;;;;;;;;5014119;28;20413;-69
2022/07/11 12:34:09;;;;;;;1.27;1.27;;;;;;;;;;5014417;28;20496;-70
2022/07/11 12:36:36;;;;;;;1.50;1.40;;;;;;;;;;5014021;28;20452;-69
2022/07/11 12:39:02;;;;;;;1.13;1.13;;;;;;;;;;5014111;28;20885;-69
2022/07/11 12:41:32;;;;;;;1.30;1.30;;;;;;;;;;4996545;28;20433;-71
2022/07/11 12:46:43;;;;;;;1.43;1.43;;;;;;;;;;5014154;28;20408;-70
2022/07/11 12:49:10;;;;;;;1.57;1.30;;;;;;;;;;5013924;28;20417;-71
2022/07/11 12:51:40;;;;;;;1.30;1.20;;;;;;;;;;5013771;28;20745;-70
2022/07/11 12:54:08;;;;;;;1.67;1.67;;;;;;;;;;5013735;28;20462;-70
2022/07/11 12:56:34;;;;;;;1.20;1.20;;;;;;;;;;5013779;28;20409;-69
2022/07/11 12:59:03;;;;;;;2.30;1.17;;;;;;;;;;4996003;28;20433;-69
2022/07/11 13:01:30;;;;;;;1.10;1.10;;;;;;;;;;5014090;28;20490;-69
2022/07/11 13:03:56;;;;;;;2.03;1.20;;;;;;;;;;5013654;28;20530;-70
2022/07/11 13:09:08;;;;;;;1.10;1.00;;;;;;;;;;5013689;28;20757;-69
2022/07/11 13:11:34;;;;;;;1.00;1.00;;;;;;;;;;5013598;28;20413;-71
2022/07/11 13:14:00;;;;;;;3.70;1.60;;;;;;;;;;5013691;28;20411;-70
2022/07/11 13:16:26;;;;;;;1.23;1.23;;;;;;;;;;5013663;28;20467;-69
2022/07/11 13:18:52;;;;;;;1.27;1.27;;;;;;;;;;5013662;28;20490;-71
2022/07/11 13:21:18;;;;;;;1.53;1.43;;;;;;;;;;5013887;28;20424;-70
2022/07/11 13:23:45;;;;;;;1.37;1.20;;;;;;;;;;4995866;28;20841;-71
2022/07/11 13:26:11;;;;;;;1.33;1.20;;;;;;;;;;5013534;28;20397;-71
2022/07/11 13:28:37;;;;;;;3.40;1.10;;;;;;;;;;5014036;28;20393;-72
2022/07/11 13:31:08;;;;;;;1.10;1.10;;;;;;;;;;4999827;28;20480;-72
2022/07/11 13:33:34;;;;;;;1.30;1.30;;;;;;;;;;5017353;28;20815;-70
2022/07/11 13:36:01;;;;;;;1.30;1.30;;;;;;;;;;5017368;28;20908;-67
2022/07/11 13:38:26;;;;;;;3.27;1.37;;;;;;;;;;5017267;28;20405;-70
2022/07/11 13:40:52;;;;;;;1.27;1.20;;;;;;;;;;5017292;28;20424;-72
2022/07/11 13:43:19;;;;;;;1.20;1.20;;;;;;;;;;5017444;28;20785;-71
2022/07/11 13:45:46;;;;;;;2.20;1.40;;;;;;;;;;5017597;28;20412;-70
2022/07/11 13:48:12;;;;;;;12.70;2.23;;;;;;;;;;5017196;28;20869;-68
2022/07/11 13:50:38;;;;;;;10.53;1.67;;;;;;;;;;5017056;28;20526;-67
2022/07/11 13:53:04;;;;;;;2.40;1.23;;;;;;;;;;5017083;28;20401;-69
2022/07/11 13:55:30;;;;;;;1.00;1.00;;;;;;;;;;5016987;28;20417;-68
2022/07/11 13:57:58;;;;;;;1.40;1.40;;;;;;;;;;5017020;28;20419;-70
2022/07/11 14:00:24;;;;;;;1.33;1.30;;;;;;;;;;5016934;28;20857;-69
2022/07/11 14:02:51;;;;;;;2.00;1.50;;;;;;;;;;5017128;28;20504;-69
2022/07/11 14:05:18;;;;;;;3.33;1.60;;;;;;;;;;5016606;28;20535;-69
2022/07/11 14:07:44;;;;;;;1.87;1.10;;;;;;;;;;5016802;28;20412;-68
2022/07/11 14:10:10;;;;;;;1.60;1.50;;;;;;;;;;5016643;28;20464;-69
2022/07/11 14:12:37;;;;;;;1.00;1.00;;;;;;;;;;5016938;28;20875;-68
2022/07/11 14:15:03;;;;;;;3.13;1.30;;;;;;;;;;5016633;28;20904;-68
2022/07/11 14:17:29;;;;;;;1.40;1.40;;;;;;;;;;5016720;28;20408;-68
2022/07/11 14:19:56;;;;;;;6.53;1.70;;;;;;;;;;5016652;28;20908;-69
2022/07/11 14:22:23;;;;;;;2.10;1.30;;;;;;;;;;4998978;28;20470;-65
2022/07/11 14:24:49;;;;;;;4.87;1.20;;;;;;;;;;5016785;28;20420;-64
2022/07/11 14:27:15;;;;;;;4.53;1.40;;;;;;;;;;5016588;28;20413;-64
2022/07/11 14:29:42;;;;;;;3.30;1.30;;;;;;;;;;5016530;28;20830;-68
2022/07/11 14:32:20;;;;;;;1.57;1.47;;;;;;;;;;5016334;28;20413;-65
2022/07/11 14:34:46;;;;;;;1.50;1.50;;;;;;;;;;4998890;28;20428;-64
2022/07/11 14:37:12;;;;;;;2.30;1.50;;;;;;;;;;5016280;28;20870;-66
2022/07/11 14:39:38;;;;;;;4.40;1.57;;;;;;;;;;5016287;28;20471;-67
2022/07/11 14:42:04;;;;;;;1.50;1.50;;;;;;;;;;5015438;28;20413;-66
2022/07/11 14:44:30;;;;;;;2.50;1.27;;;;;;;;;;5016402;28;20412;-67
2022/07/11 14:46:56;;;;;;;1.40;1.40;;;;;;;;;;5016089;28;20486;-66
2022/07/11 14:49:23;;;;;;;1.53;1.40;;;;;;;;;;5015997;28;20416;-66
2022/07/11 14:51:49;;;;;;;2.40;1.40;;;;;;;;;;5015980;28;20467;-67
2022/07/11 14:54:15;;;;;;;4.20;1.70;;;;;;;;;;5016002;28;20408;-67
2022/07/11 14:56:41;;;;;;;1.67;1.67;;;;;;;;;;5015814;28;20425;-66
2022/07/11 14:59:08;;;;;;;3.03;1.73;;;;;;;;;;5015780;28;20448;-67
2022/07/11 15:01:34;;;;;;;1.50;1.40;;;;;;;;;;5015951;28;20437;-66